McWilliams, Alabama
Current Conditions -  °F | °C
As of 8:56 PM on Tuesday 25 Nov 2014 (Local Time) from KPRN Reporting Station
Broken Clouds Broken Clouds  
Wind Chill: 52°   Ceiling: 11000
Heat Index: 52°   Visibility: 10mi
Dew Point: 33°   Wind: 9mph
Humidity: 49%   Direction: 330°NNW
Pressure: 30.09"   Gusts: NA
Location:  31.83°N, 87.09°W
Report Text: KPRN 260256Z AUTO 33008KT 10SM BKN110 11/01 A3009 RMK AO2 SLP188 T01110006 50005
Loading
Personal Weather Stations






























Interactive Weather Map New forecast layout! Learn more

10-Day Weather Forecast

Advertisements
Track Severe Weather on mobile